createdAt,value
2023-07-10T00:00:25.677Z,84.46
2023-07-10T00:02:52.275Z,84.73
2023-07-10T00:05:22.364Z,85.01
2023-07-10T00:07:48.968Z,84.94
2023-07-10T00:10:17.007Z,85.16
2023-07-10T00:12:45.205Z,84.93
2023-07-10T00:15:16.401Z,84.86
2023-07-10T00:17:46.408Z,85.53
2023-07-10T00:20:22.568Z,85.86
2023-07-10T00:22:49.536Z,86.33
2023-07-10T00:25:16.593Z,85.81
2023-07-10T00:27:44.923Z,86.81
2023-07-10T00:30:23.598Z,86.20
2023-07-10T00:32:54.548Z,86.50
2023-07-10T00:35:21.757Z,85.76
2023-07-10T00:38:04.888Z,86.33
2023-07-10T00:40:35.650Z,85.59
2023-07-10T00:43:07.451Z,84.88
2023-07-10T00:45:34.042Z,84.13
2023-07-10T00:48:13.732Z,85.00
2023-07-10T00:50:49.718Z,85.73
2023-07-10T00:53:25.904Z,85.59
2023-07-10T00:55:56.072Z,86.12
2023-07-10T00:58:30.198Z,86.31
2023-07-10T01:01:09.861Z,86.87
2023-07-10T01:03:39.083Z,87.32
2023-07-10T01:06:10.153Z,86.80
2023-07-10T01:08:40.681Z,87.34
2023-07-10T01:11:07.563Z,87.96
2023-07-10T01:13:35.833Z,87.93
2023-07-10T01:16:02.734Z,88.22
2023-07-10T01:18:29.813Z,88.61
2023-07-10T01:21:09.304Z,88.21
2023-07-10T01:23:35.981Z,88.62
2023-07-10T01:26:06.742Z,89.37
2023-07-10T01:28:36.871Z,89.62
2023-07-10T01:31:13.476Z,89.10
2023-07-10T01:33:50.870Z,88.86
2023-07-10T01:36:20.589Z,88.14
2023-07-10T01:38:56.385Z,88.56
2023-07-10T01:41:32.366Z,88.78
2023-07-10T01:44:00.329Z,89.15
2023-07-10T01:46:28.707Z,89.99
2023-07-10T01:48:59.116Z,89.73
2023-07-10T01:51:25.706Z,89.69
2023-07-10T01:53:52.263Z,88.94
2023-07-10T01:56:22.169Z,88.83
2023-07-10T01:58:48.719Z,89.26
2023-07-10T02:01:15.264Z,88.83
2023-07-10T02:03:41.801Z,89.67
2023-07-10T02:06:08.250Z,89.88
2023-07-10T02:08:34.712Z,89.93
2023-07-10T02:11:01.470Z,90.23
2023-07-10T02:13:28.250Z,91.04
2023-07-10T02:15:57.046Z,92.13
2023-07-10T02:18:23.495Z,91.81
2023-07-10T02:20:52.035Z,91.69
2023-07-10T02:23:18.610Z,92.14
2023-07-10T02:25:45.636Z,92.28
2023-07-10T02:28:12.144Z,91.59
2023-07-10T02:30:39.335Z,91.19
2023-07-10T02:33:06.195Z,91.48
2023-07-10T02:35:33.390Z,90.66
2023-07-10T02:37:59.910Z,90.21
2023-07-10T02:40:26.400Z,90.16
2023-07-10T02:42:52.859Z,89.53
2023-07-10T02:45:20.179Z,88.99
2023-07-10T02:47:46.717Z,89.81
2023-07-10T02:50:13.270Z,89.42
2023-07-10T02:52:39.740Z,89.21
2023-07-10T02:55:06.488Z,89.41
2023-07-10T02:57:33.005Z,89.96
2023-07-10T02:59:59.457Z,89.47
2023-07-10T03:02:26.024Z,89.78
2023-07-10T03:04:52.613Z,90.61
2023-07-10T03:07:19.055Z,90.55
2023-07-10T03:09:45.787Z,91.11
2023-07-10T03:12:12.329Z,90.97
2023-07-10T03:14:38.770Z,91.45
2023-07-10T03:17:05.516Z,91.24
2023-07-10T03:19:32.777Z,91.04
2023-07-10T03:21:59.459Z,92.33
2023-07-10T03:24:26.119Z,91.95
2023-07-10T03:26:52.604Z,92.37
2023-07-10T03:29:19.116Z,92.11
2023-07-10T03:31:45.650Z,92.42
2023-07-10T03:34:13.483Z,93.84
2023-07-10T03:36:40.445Z,93.43
2023-07-10T03:39:07.789Z,93.40
2023-07-10T03:41:34.672Z,93.47
2023-07-10T03:44:01.627Z,93.38
2023-07-10T03:46:28.369Z,92.70
2023-07-10T03:48:54.947Z,92.93
2023-07-10T03:51:21.755Z,93.17
2023-07-10T03:53:49.018Z,93.73
2023-07-10T03:56:16.080Z,94.17
2023-07-10T03:58:45.275Z,93.09
2023-07-10T04:01:12.801Z,93.06
2023-07-10T04:03:40.660Z,93.05
2023-07-10T04:06:09.357Z,92.90
2023-07-10T04:08:39.517Z,91.85
2023-07-10T04:11:18.969Z,92.63
2023-07-10T04:13:45.482Z,91.69
2023-07-10T04:16:18.143Z,91.43
2023-07-10T04:18:46.653Z,91.49
2023-07-10T04:21:19.638Z,91.34
2023-07-10T04:23:47.174Z,86.19
2023-07-10T04:26:22.547Z,86.45
2023-07-10T04:28:52.282Z,87.70
2023-07-10T04:31:20.586Z,87.96
2023-07-10T04:33:48.011Z,88.32
2023-07-10T04:36:14.759Z,88.94
2023-07-10T04:38:41.420Z,86.87
2023-07-10T04:41:11.482Z,86.95
2023-07-10T04:43:38.050Z,88.78
2023-07-10T04:46:08.201Z,88.44
2023-07-10T04:48:35.067Z,87.79
2023-07-10T04:51:04.655Z,85.73
2023-07-10T04:53:32.497Z,73.72
2023-07-10T04:56:01.963Z,66.75
2023-07-10T04:58:30.166Z,62.29
2023-07-10T05:00:59.017Z,59.45
2023-07-10T05:03:26.286Z,61.28
2023-07-10T05:05:58.103Z,59.95
2023-07-10T05:08:26.417Z,58.22
2023-07-10T05:10:55.388Z,56.50
2023-07-10T05:13:24.159Z,55.00
2023-07-10T05:15:51.013Z,55.06
2023-07-10T05:18:17.611Z,53.15
2023-07-10T05:20:45.683Z,52.37
2023-07-10T05:23:12.188Z,51.06
2023-07-10T05:25:39.066Z,52.60
2023-07-10T05:28:05.798Z,58.91
2023-07-10T05:30:32.557Z,57.50
2023-07-10T05:32:59.051Z,53.47
2023-07-10T05:35:25.592Z,51.54
2023-07-10T05:37:52.112Z,50.45
2023-07-10T05:40:18.719Z,49.85
2023-07-10T05:42:45.453Z,50.07
2023-07-10T05:45:11.883Z,49.37
2023-07-10T05:47:38.414Z,49.35
2023-07-10T05:50:05.261Z,48.99
2023-07-10T05:52:31.763Z,48.99
2023-07-10T05:54:58.345Z,49.81
2023-07-10T05:57:25.042Z,48.65
2023-07-10T05:59:51.553Z,47.53
2023-07-10T06:02:18.077Z,47.78
2023-07-10T06:04:44.501Z,47.29
2023-07-10T06:07:10.912Z,48.19
2023-07-10T06:09:37.376Z,47.75
2023-07-10T06:12:04.329Z,48.17
2023-07-10T06:14:30.771Z,49.41
2023-07-10T06:16:57.294Z,47.63
2023-07-10T06:19:23.841Z,48.36
2023-07-10T06:21:50.283Z,48.56
2023-07-10T06:24:16.693Z,48.58
2023-07-10T06:26:43.192Z,48.59
2023-07-10T06:29:09.702Z,48.02
2023-07-10T06:31:36.309Z,48.77
2023-07-10T06:34:02.739Z,48.11
2023-07-10T06:36:29.655Z,47.70
2023-07-10T06:38:56.133Z,49.07
2023-07-10T06:41:22.698Z,48.31
2023-07-10T06:43:49.277Z,49.45
2023-07-10T06:46:15.829Z,48.23
2023-07-10T06:48:43.913Z,48.52
2023-07-10T06:51:10.388Z,49.72
2023-07-10T06:53:36.943Z,49.03
2023-07-10T06:56:03.953Z,49.42
2023-07-10T06:58:32.828Z,49.81
2023-07-10T07:01:01.631Z,49.19
2023-07-10T07:03:29.103Z,49.55
2023-07-10T07:05:55.669Z,48.97
2023-07-10T07:08:23.445Z,49.31
2023-07-10T07:10:51.596Z,49.60
2023-07-10T07:13:21.669Z,49.04
2023-07-10T07:15:50.824Z,51.09
2023-07-10T07:18:17.370Z,50.82
2023-07-10T07:20:43.871Z,53.03
2023-07-10T07:23:10.388Z,54.53
2023-07-10T07:25:36.978Z,55.35
2023-07-10T07:28:04.954Z,56.71
2023-07-10T07:30:32.891Z,56.62
2023-07-10T07:33:00.560Z,57.76
2023-07-10T07:35:27.407Z,57.02
2023-07-10T07:37:54.217Z,55.92
2023-07-10T07:40:20.760Z,54.96
2023-07-10T07:42:48.567Z,56.24
2023-07-10T07:45:16.198Z,57.27
2023-07-10T07:47:43.043Z,56.64
2023-07-10T07:50:10.301Z,57.55
2023-07-10T07:52:37.129Z,56.08
2023-07-10T07:55:05.095Z,55.65
2023-07-10T07:57:31.752Z,56.55
2023-07-10T07:59:59.679Z,57.79
2023-07-10T08:02:27.004Z,57.53
2023-07-10T08:04:53.857Z,55.98
2023-07-10T08:07:20.375Z,55.65
2023-07-10T08:09:46.864Z,55.76
2023-07-10T08:12:13.357Z,56.11
2023-07-10T08:14:39.879Z,56.51
2023-07-10T08:17:06.763Z,56.17
2023-07-10T08:19:33.302Z,54.93
2023-07-10T08:21:59.764Z,54.82
2023-07-10T08:24:26.342Z,55.67
2023-07-10T08:26:52.897Z,57.18
2023-07-10T08:29:24.612Z,56.40
2023-07-10T08:31:59.738Z,55.49
2023-07-10T08:34:29.009Z,56.03
2023-07-10T08:36:55.895Z,55.19
2023-07-10T08:39:23.862Z,55.75
2023-07-10T08:42:02.447Z,54.09
2023-07-10T08:44:35.459Z,53.77
2023-07-10T08:47:13.302Z,54.68
2023-07-10T08:49:55.016Z,53.89
2023-07-10T08:52:47.975Z,54.72
2023-07-10T08:55:28.750Z,54.07
2023-07-10T08:58:01.918Z,53.67
2023-07-10T09:00:31.220Z,54.12
2023-07-10T09:03:08.173Z,53.67
2023-07-10T09:05:38.117Z,54.24
2023-07-10T09:08:13.134Z,54.49
2023-07-10T09:10:53.235Z,53.43
2023-07-10T09:13:55.369Z,53.66
2023-07-10T09:16:22.636Z,53.86
2023-07-10T09:18:59.546Z,52.62
2023-07-10T09:21:30.792Z,51.54
2023-07-10T09:23:57.421Z,50.46
2023-07-10T09:26:30.784Z,50.14
2023-07-10T09:29:18.345Z,51.76
2023-07-10T09:31:54.601Z,49.86
2023-07-10T09:34:23.210Z,49.76
2023-07-10T09:36:54.741Z,50.52
2023-07-10T09:39:25.102Z,48.84
2023-07-10T09:41:51.646Z,50.55
2023-07-10T09:44:20.923Z,50.89
2023-07-10T09:46:51.155Z,52.48
2023-07-10T09:49:23.525Z,51.78
2023-07-10T09:52:01.892Z,50.88
2023-07-10T09:54:37.144Z,49.56
2023-07-10T09:57:11.005Z,50.27
2023-07-10T09:59:37.536Z,49.96
2023-07-10T10:02:43.788Z,52.02
2023-07-10T10:05:13.491Z,51.15
2023-07-10T10:07:43.170Z,51.38
2023-07-10T10:10:25.607Z,50.14
2023-07-10T10:13:19.635Z,48.99
2023-07-10T10:15:54.533Z,47.07
2023-07-10T10:18:46.024Z,47.65
2023-07-10T10:21:15.942Z,47.39
2023-07-10T10:23:45.888Z,48.23
2023-07-10T10:26:27.883Z,47.93
2023-07-10T10:29:15.627Z,47.60
2023-07-10T10:31:51.296Z,47.53
2023-07-10T10:34:31.399Z,46.52
2023-07-10T10:37:16.248Z,46.58
2023-07-10T10:40:02.645Z,46.08
2023-07-10T10:42:42.644Z,46.57
2023-07-10T10:45:44.135Z,47.02
2023-07-10T10:48:29.671Z,47.81
2023-07-10T10:51:38.250Z,48.59
2023-07-10T10:54:19.741Z,46.36
2023-07-10T10:57:15.481Z,48.11
2023-07-10T11:00:19.467Z,47.71
2023-07-10T11:03:05.317Z,47.88
2023-07-10T11:05:42.986Z,48.35
2023-07-10T11:08:37.875Z,47.84
2023-07-10T11:11:14.127Z,46.74
2023-07-10T11:13:41.166Z,46.77
2023-07-10T11:16:08.369Z,46.73
2023-07-10T11:18:35.694Z,47.67
2023-07-10T11:21:03.616Z,47.08
2023-07-10T11:23:42.261Z,46.54
2023-07-10T11:26:22.275Z,46.25
2023-07-10T11:29:02.267Z,47.87
2023-07-10T11:31:32.744Z,47.33
2023-07-10T11:34:34.573Z,47.59
2023-07-10T11:37:01.091Z,47.53
2023-07-10T11:39:41.721Z,48.29
2023-07-10T11:42:18.373Z,48.16
2023-07-10T11:44:54.705Z,48.19
2023-07-10T11:47:28.873Z,47.70
2023-07-10T11:49:55.640Z,47.41
2023-07-10T11:52:21.992Z,47.72
2023-07-10T11:54:49.479Z,47.69
2023-07-10T11:57:20.379Z,46.48
2023-07-10T11:59:56.231Z,46.78
2023-07-10T12:02:55.746Z,46.95
2023-07-10T12:05:36.723Z,44.51
2023-07-10T12:08:09.368Z,44.07
2023-07-10T12:10:48.154Z,45.32
2023-07-10T12:13:14.889Z,43.96
2023-07-10T12:15:42.247Z,45.21
2023-07-10T12:18:09.327Z,43.69
2023-07-10T12:20:37.115Z,44.13
2023-07-10T12:23:12.406Z,44.25
2023-07-10T12:25:39.241Z,44.62
2023-07-10T12:28:25.614Z,44.47
2023-07-10T12:30:56.862Z,45.08
2023-07-10T12:33:39.029Z,45.10
2023-07-10T12:36:15.766Z,42.96
2023-07-10T12:38:42.626Z,43.75
2023-07-10T12:41:09.261Z,43.78
2023-07-10T12:43:35.823Z,42.75
2023-07-10T12:46:13.421Z,42.69
2023-07-10T12:48:41.297Z,43.73
2023-07-10T12:51:09.042Z,44.58
2023-07-10T12:53:39.961Z,45.03
2023-07-10T12:56:20.297Z,45.64
2023-07-10T12:58:49.838Z,43.86
2023-07-10T13:01:35.664Z,43.74
2023-07-10T13:04:05.128Z,43.87
2023-07-10T13:06:33.352Z,42.68
2023-07-10T13:09:03.396Z,43.27
2023-07-10T13:11:41.079Z,41.75
2023-07-10T13:16:44.830Z,43.94
2023-07-10T13:19:11.452Z,42.68
2023-07-10T13:21:37.893Z,42.80
2023-07-10T13:24:04.697Z,42.57
2023-07-10T13:26:31.197Z,42.27
2023-07-10T13:28:57.704Z,43.38
2023-07-10T13:31:26.458Z,43.34
2023-07-10T13:33:53.072Z,41.56
2023-07-10T13:36:22.436Z,40.89
2023-07-10T13:38:49.228Z,40.56
2023-07-10T13:41:21.665Z,40.08
2023-07-10T13:43:49.253Z,40.92
2023-07-10T13:46:20.760Z,40.16
2023-07-10T13:48:50.034Z,39.95
2023-07-10T13:51:17.533Z,40.04
2023-07-10T13:53:44.389Z,39.57
2023-07-10T13:56:21.791Z,40.15
2023-07-10T13:58:48.891Z,40.76
2023-07-10T14:01:15.715Z,40.00
2023-07-10T14:03:43.928Z,41.83
2023-07-10T14:06:28.523Z,42.71
2023-07-10T14:08:58.819Z,42.07
2023-07-10T14:11:26.974Z,41.22
2023-07-10T14:13:53.594Z,42.71
2023-07-10T14:16:25.157Z,42.57
2023-07-10T14:18:51.893Z,41.65
2023-07-10T14:21:18.536Z,41.01
2023-07-10T14:23:47.408Z,41.64
2023-07-10T14:26:29.712Z,41.81
2023-07-10T14:28:59.742Z,42.98
2023-07-10T14:31:28.076Z,42.60
2023-07-10T14:33:54.731Z,43.34
2023-07-10T14:36:26.161Z,43.62
2023-07-10T14:38:52.928Z,43.77
2023-07-10T14:41:23.458Z,43.64
2023-07-10T14:43:50.549Z,43.55
2023-07-10T14:46:24.700Z,42.53
2023-07-10T14:48:52.696Z,42.17
2023-07-10T14:51:19.253Z,43.56
2023-07-10T14:53:45.889Z,42.20
2023-07-10T14:56:17.184Z,42.52
2023-07-10T14:58:44.496Z,42.32
2023-07-10T15:01:20.097Z,43.29
2023-07-10T15:03:47.779Z,43.61
2023-07-10T15:06:36.463Z,42.46
2023-07-10T15:09:03.034Z,42.09
2023-07-10T15:11:29.509Z,41.83
2023-07-10T15:13:56.123Z,41.26
2023-07-10T15:16:25.780Z,42.82
2023-07-10T15:18:53.637Z,43.05
2023-07-10T15:21:23.185Z,43.58
2023-07-10T15:23:49.706Z,43.14
2023-07-10T15:26:16.385Z,41.90
2023-07-10T15:28:42.993Z,42.63
2023-07-10T15:31:11.659Z,42.05
2023-07-10T15:33:41.994Z,42.81
2023-07-10T15:36:16.361Z,42.69
2023-07-10T15:38:42.996Z,41.66
2023-07-10T15:41:22.497Z,41.76
2023-07-10T15:43:49.221Z,40.01
2023-07-10T15:46:15.945Z,40.53
2023-07-10T15:48:43.087Z,42.21
2023-07-10T15:51:23.302Z,42.88
2023-07-10T15:53:49.836Z,42.47
2023-07-10T15:56:16.356Z,42.31
2023-07-10T15:58:43.170Z,41.65
2023-07-10T16:01:13.887Z,42.81
2023-07-10T16:03:40.706Z,42.12
2023-07-10T16:06:07.375Z,42.06
2023-07-10T16:08:36.871Z,42.34
2023-07-10T16:11:17.485Z,43.21
2023-07-10T16:13:45.196Z,44.38
2023-07-10T16:16:11.736Z,44.56
2023-07-10T16:18:38.426Z,44.40
2023-07-10T16:21:18.382Z,44.96
2023-07-10T16:23:46.023Z,44.66
2023-07-10T16:26:15.185Z,45.39
2023-07-10T16:28:42.251Z,45.63
2023-07-10T16:31:17.331Z,45.34
2023-07-10T16:33:44.439Z,44.39
2023-07-10T16:36:15.730Z,45.24
2023-07-10T16:38:42.540Z,44.67
2023-07-10T16:41:14.413Z,45.16
2023-07-10T16:43:41.031Z,45.21
2023-07-10T16:46:07.811Z,44.90
2023-07-10T16:48:34.264Z,44.93
2023-07-10T16:51:03.317Z,45.08
2023-07-10T16:53:31.611Z,45.86
2023-07-10T16:56:00.462Z,45.80
2023-07-10T16:58:32.705Z,45.72
2023-07-10T17:01:00.277Z,45.10
2023-07-10T17:03:31.953Z,45.78
2023-07-10T17:06:00.798Z,45.64
2023-07-10T17:08:29.406Z,46.32
2023-07-10T17:10:58.260Z,46.59
2023-07-10T17:13:27.901Z,45.49
2023-07-10T17:15:56.830Z,46.77
2023-07-10T17:18:28.505Z,45.60
2023-07-10T17:20:57.940Z,46.42
2023-07-10T17:23:31.019Z,45.77
2023-07-10T17:25:59.021Z,46.34
2023-07-10T17:28:31.941Z,46.71
2023-07-10T17:31:03.497Z,46.55
2023-07-10T17:33:37.844Z,46.10
2023-07-10T17:36:06.370Z,46.47
2023-07-10T17:38:34.455Z,46.59
2023-07-10T17:41:01.768Z,46.15
2023-07-10T17:43:32.070Z,46.57
2023-07-10T17:46:03.807Z,46.48
2023-07-10T17:48:30.846Z,45.85
2023-07-10T17:51:06.441Z,46.72
2023-07-10T17:53:33.442Z,47.41
2023-07-10T17:56:00.256Z,47.60
2023-07-10T17:58:28.500Z,47.78
2023-07-10T18:00:55.582Z,47.91
2023-07-10T18:03:27.920Z,48.11
2023-07-10T18:05:54.498Z,48.18
2023-07-10T18:08:30.952Z,49.34
2023-07-10T18:11:10.835Z,49.20
2023-07-10T18:13:39.775Z,48.71
2023-07-10T18:16:10.344Z,48.71
2023-07-10T18:18:38.811Z,49.13
2023-07-10T18:21:21.766Z,48.50
2023-07-10T18:23:49.473Z,49.57
2023-07-10T18:26:16.779Z,49.68
2023-07-10T18:28:43.473Z,49.27
2023-07-10T18:31:22.817Z,48.42
2023-07-10T18:33:51.222Z,48.18
2023-07-10T18:36:19.268Z,48.82
2023-07-10T18:38:46.077Z,48.42
2023-07-10T18:41:20.244Z,48.85
2023-07-10T18:43:47.801Z,49.11
2023-07-10T18:46:16.634Z,49.07
2023-07-10T18:48:43.823Z,50.34
2023-07-10T18:51:18.677Z,50.03
2023-07-10T18:53:45.159Z,50.67
2023-07-10T18:56:11.979Z,50.15
2023-07-10T18:58:39.130Z,49.95
2023-07-10T19:01:05.984Z,49.89
2023-07-10T19:03:32.860Z,49.91
2023-07-10T19:05:59.583Z,49.74
2023-07-10T19:08:31.510Z,49.73
2023-07-10T19:10:58.960Z,49.79
2023-07-10T19:13:27.128Z,50.43
2023-07-10T19:15:56.922Z,50.50
2023-07-10T19:18:33.760Z,51.13
2023-07-10T19:21:05.125Z,50.60
2023-07-10T19:23:33.202Z,51.69
2023-07-10T19:25:59.846Z,51.50
2023-07-10T19:28:28.708Z,51.22
2023-07-10T19:31:02.204Z,50.56
2023-07-10T19:33:33.720Z,50.56
2023-07-10T19:36:00.724Z,50.58
2023-07-10T19:38:29.565Z,50.91
2023-07-10T19:40:59.906Z,49.70
2023-07-10T19:43:27.175Z,49.75
2023-07-10T19:45:56.283Z,49.97
2023-07-10T19:48:27.102Z,49.29
2023-07-10T19:50:53.634Z,48.82
2023-07-10T19:53:27.229Z,48.98
2023-07-10T19:55:56.973Z,48.89
2023-07-10T19:58:29.444Z,49.77
2023-07-10T20:00:56.513Z,49.09
2023-07-10T20:03:29.226Z,49.98
2023-07-10T20:05:56.387Z,49.06
2023-07-10T20:08:29.298Z,49.84
2023-07-10T20:10:56.440Z,49.79
2023-07-10T20:13:26.595Z,50.29
2023-07-10T20:16:10.538Z,49.88
2023-07-10T20:18:38.154Z,50.23
2023-07-10T20:21:06.285Z,50.39
2023-07-10T20:23:33.480Z,50.59
2023-07-10T20:26:03.290Z,51.06
2023-07-10T20:28:38.345Z,51.03
2023-07-10T20:31:06.218Z,51.48
2023-07-10T20:33:35.712Z,52.43
2023-07-10T20:36:06.974Z,51.60
2023-07-10T20:38:39.096Z,52.11
2023-07-10T20:41:06.715Z,51.72
2023-07-10T20:43:34.127Z,52.56
2023-07-10T20:46:04.790Z,52.97
2023-07-10T20:48:33.835Z,53.31
2023-07-10T20:51:00.797Z,52.95
2023-07-10T20:53:28.526Z,53.27
2023-07-10T20:56:15.792Z,53.90
2023-07-10T20:58:42.771Z,54.24
2023-07-10T21:01:18.263Z,53.98
2023-07-10T21:03:45.816Z,54.58
2023-07-10T21:06:17.053Z,54.96
2023-07-10T21:08:57.528Z,54.96
2023-07-10T21:11:27.185Z,55.51
2023-07-10T21:13:55.976Z,55.52
2023-07-10T21:16:25.426Z,55.96
2023-07-10T21:18:52.529Z,55.84
2023-07-10T21:21:19.413Z,56.04
2023-07-10T21:23:47.808Z,56.02
2023-07-10T21:26:19.143Z,56.97
2023-07-10T21:28:47.479Z,56.91
2023-07-10T21:31:26.268Z,56.90
2023-07-10T21:33:55.073Z,57.27
2023-07-10T21:36:22.240Z,57.93
2023-07-10T21:38:49.736Z,59.03
2023-07-10T21:41:20.402Z,58.37
2023-07-10T21:43:50.409Z,59.47
2023-07-10T21:46:23.352Z,59.26
2023-07-10T21:48:50.448Z,58.79
2023-07-10T21:51:17.686Z,59.12
2023-07-10T21:53:44.218Z,59.46
2023-07-10T21:56:31.062Z,59.33
2023-07-10T21:59:00.841Z,59.71
2023-07-10T22:01:32.693Z,59.71
2023-07-10T22:04:00.944Z,60.25
2023-07-10T22:06:29.708Z,60.83
2023-07-10T22:08:56.445Z,61.25
2023-07-10T22:11:31.318Z,61.67
2023-07-10T22:13:59.860Z,62.00
2023-07-10T22:16:31.034Z,61.99
2023-07-10T22:19:03.138Z,62.45
2023-07-10T22:21:33.166Z,63.12
2023-07-10T22:24:01.082Z,63.26
2023-07-10T22:26:28.332Z,63.77
2023-07-10T22:28:55.951Z,63.99
2023-07-10T22:31:25.622Z,63.77
2023-07-10T22:33:52.776Z,64.40
2023-07-10T22:36:19.671Z,64.41
2023-07-10T22:38:46.528Z,64.92
2023-07-10T22:41:27.846Z,64.76
2023-07-10T22:44:00.246Z,65.82
2023-07-10T22:46:30.294Z,66.39
2023-07-10T22:48:58.185Z,66.93
2023-07-10T22:51:30.985Z,66.49
2023-07-10T22:53:58.263Z,67.23
2023-07-10T22:56:28.536Z,67.32
2023-07-10T22:58:55.412Z,68.07
2023-07-10T23:01:23.010Z,68.43
2023-07-10T23:03:52.359Z,68.72
2023-07-10T23:06:24.561Z,68.83
2023-07-10T23:08:52.657Z,69.30
2023-07-10T23:11:19.241Z,69.52
2023-07-10T23:13:45.777Z,69.76
2023-07-10T23:16:15.177Z,69.96
2023-07-10T23:18:55.749Z,69.61
2023-07-10T23:21:23.891Z,69.81
2023-07-10T23:23:50.761Z,69.60
2023-07-10T23:26:20.213Z,70.17
2023-07-10T23:28:47.321Z,70.06
2023-07-10T23:31:29.516Z,69.64
2023-07-10T23:33:56.808Z,69.95
2023-07-10T23:36:26.071Z,70.41
2023-07-10T23:38:53.478Z,70.44
2023-07-10T23:41:20.610Z,70.97
2023-07-10T23:43:47.754Z,70.96
2023-07-10T23:46:14.654Z,71.57
2023-07-10T23:48:42.914Z,70.76
2023-07-10T23:51:09.980Z,70.11
2023-07-10T23:53:36.568Z,70.30
2023-07-10T23:56:03.698Z,70.87
2023-07-10T23:58:30.665Z,71.28
